sensor_id;sensor_type;location;lat;lon;timestamp;P1;durP1;ratioP1;P2;durP2;ratioP2
72087;SDS011;59961;50.232;8.616;2023-06-22T00:01:07;6.70;;;4.28;;
72087;SDS011;59961;50.232;8.616;2023-06-22T00:03:32;8.75;;;4.18;;
72087;SDS011;59961;50.232;8.616;2023-06-22T00:05:58;8.77;;;4.50;;
72087;SDS011;59961;50.232;8.616;2023-06-22T00:08:23;8.97;;;4.30;;
72087;SDS011;59961;50.232;8.616;2023-06-22T00:10:48;7.90;;;4.13;;
72087;SDS011;59961;50.232;8.616;2023-06-22T00:13:13;8.98;;;4.20;;
72087;SDS011;59961;50.232;8.616;2023-06-22T00:15:39;9.02;;;4.72;;
72087;SDS011;59961;50.232;8.616;2023-06-22T00:18:05;8.93;;;4.50;;
72087;SDS011;59961;50.232;8.616;2023-06-22T00:20:30;7.60;;;3.83;;
72087;SDS011;59961;50.232;8.616;2023-06-22T00:22:56;8.67;;;4.40;;
72087;SDS011;59961;50.232;8.616;2023-06-22T00:25:22;6.53;;;4.18;;
72087;SDS011;59961;50.232;8.616;2023-06-22T00:27:48;7.87;;;4.37;;
72087;SDS011;59961;50.232;8.616;2023-06-22T00:30:13;9.60;;;4.22;;
72087;SDS011;59961;50.232;8.616;2023-06-22T00:32:38;8.23;;;4.20;;
72087;SDS011;59961;50.232;8.616;2023-06-22T00:35:03;7.40;;;4.37;;
72087;SDS011;59961;50.232;8.616;2023-06-22T00:37:29;8.07;;;4.43;;
72087;SDS011;59961;50.232;8.616;2023-06-22T00:39:55;8.50;;;4.50;;
72087;SDS011;59961;50.232;8.616;2023-06-22T00:42:20;8.03;;;4.57;;
72087;SDS011;59961;50.232;8.616;2023-06-22T00:44:45;8.43;;;4.33;;
72087;SDS011;59961;50.232;8.616;2023-06-22T00:47:11;7.07;;;3.90;;
72087;SDS011;59961;50.232;8.616;2023-06-22T00:49:37;7.93;;;4.32;;
72087;SDS011;59961;50.232;8.616;2023-06-22T00:52:03;8.15;;;4.57;;
72087;SDS011;59961;50.232;8.616;2023-06-22T00:54:29;10.40;;;4.07;;
72087;SDS011;59961;50.232;8.616;2023-06-22T00:56:54;9.63;;;4.37;;
72087;SDS011;59961;50.232;8.616;2023-06-22T00:59:21;7.05;;;4.32;;
72087;SDS011;59961;50.232;8.616;2023-06-22T01:01:46;8.23;;;4.63;;
72087;SDS011;59961;50.232;8.616;2023-06-22T01:04:11;7.80;;;4.07;;
72087;SDS011;59961;50.232;8.616;2023-06-22T01:06:38;8.53;;;5.00;;
72087;SDS011;59961;50.232;8.616;2023-06-22T01:09:06;8.95;;;4.40;;
72087;SDS011;59961;50.232;8.616;2023-06-22T01:11:36;8.05;;;4.47;;
72087;SDS011;59961;50.232;8.616;2023-06-22T01:14:04;7.55;;;4.63;;
72087;SDS011;59961;50.232;8.616;2023-06-22T01:16:32;7.53;;;4.07;;
72087;SDS011;59961;50.232;8.616;2023-06-22T01:19:00;7.60;;;4.30;;
72087;SDS011;59961;50.232;8.616;2023-06-22T01:21:28;10.05;;;4.97;;
72087;SDS011;59961;50.232;8.616;2023-06-22T01:26:20;9.53;;;5.20;;
72087;SDS011;59961;50.232;8.616;2023-06-22T01:28:50;8.18;;;4.72;;
72087;SDS011;59961;50.232;8.616;2023-06-22T01:31:18;10.60;;;4.97;;
72087;SDS011;59961;50.232;8.616;2023-06-22T01:33:46;9.00;;;4.80;;
72087;SDS011;59961;50.232;8.616;2023-06-22T01:36:13;7.72;;;4.82;;
72087;SDS011;59961;50.232;8.616;2023-06-22T01:38:39;8.48;;;4.93;;
72087;SDS011;59961;50.232;8.616;2023-06-22T01:41:04;10.07;;;5.57;;
72087;SDS011;59961;50.232;8.616;2023-06-22T01:43:30;10.95;;;5.80;;
72087;SDS011;59961;50.232;8.616;2023-06-22T01:45:56;7.93;;;4.80;;
72087;SDS011;59961;50.232;8.616;2023-06-22T01:48:22;10.40;;;5.60;;
72087;SDS011;59961;50.232;8.616;2023-06-22T01:50:47;9.67;;;5.30;;
72087;SDS011;59961;50.232;8.616;2023-06-22T01:53:12;10.00;;;5.70;;
72087;SDS011;59961;50.232;8.616;2023-06-22T01:55:37;8.18;;;5.15;;
72087;SDS011;59961;50.232;8.616;2023-06-22T01:58:02;10.48;;;5.53;;
72087;SDS011;59961;50.232;8.616;2023-06-22T02:00:28;8.37;;;4.77;;
72087;SDS011;59961;50.232;8.616;2023-06-22T02:03:01;9.68;;;4.78;;
72087;SDS011;59961;50.232;8.616;2023-06-22T02:05:29;8.75;;;4.78;;
72087;SDS011;59961;50.232;8.616;2023-06-22T02:08:05;8.68;;;5.28;;
72087;SDS011;59961;50.232;8.616;2023-06-22T02:10:32;8.33;;;5.00;;
72087;SDS011;59961;50.232;8.616;2023-06-22T02:12:57;9.57;;;5.40;;
72087;SDS011;59961;50.232;8.616;2023-06-22T02:15:22;8.97;;;5.03;;
72087;SDS011;59961;50.232;8.616;2023-06-22T02:17:48;8.87;;;5.03;;
72087;SDS011;59961;50.232;8.616;2023-06-22T02:20:14;9.43;;;5.13;;
72087;SDS011;59961;50.232;8.616;2023-06-22T02:22:39;11.95;;;5.30;;
72087;SDS011;59961;50.232;8.616;2023-06-22T02:25:04;10.35;;;5.68;;
72087;SDS011;59961;50.232;8.616;2023-06-22T02:27:29;10.03;;;5.50;;
72087;SDS011;59961;50.232;8.616;2023-06-22T02:29:54;9.85;;;5.38;;
72087;SDS011;59961;50.232;8.616;2023-06-22T02:32:20;10.40;;;6.13;;
72087;SDS011;59961;50.232;8.616;2023-06-22T02:34:45;9.60;;;5.47;;
72087;SDS011;59961;50.232;8.616;2023-06-22T02:37:12;9.25;;;5.57;;
72087;SDS011;59961;50.232;8.616;2023-06-22T02:39:39;9.25;;;5.53;;
72087;SDS011;59961;50.232;8.616;2023-06-22T02:42:05;9.87;;;5.30;;
72087;SDS011;59961;50.232;8.616;2023-06-22T02:44:30;10.33;;;5.57;;
72087;SDS011;59961;50.232;8.616;2023-06-22T02:46:55;9.73;;;5.55;;
72087;SDS011;59961;50.232;8.616;2023-06-22T02:49:21;9.47;;;5.60;;
72087;SDS011;59961;50.232;8.616;2023-06-22T02:51:46;9.10;;;5.27;;
72087;SDS011;59961;50.232;8.616;2023-06-22T02:54:11;10.30;;;5.50;;
72087;SDS011;59961;50.232;8.616;2023-06-22T02:56:37;9.40;;;5.55;;
72087;SDS011;59961;50.232;8.616;2023-06-22T02:59:02;9.15;;;5.60;;
72087;SDS011;59961;50.232;8.616;2023-06-22T03:01:27;9.87;;;5.80;;
72087;SDS011;59961;50.232;8.616;2023-06-22T03:03:53;9.30;;;5.20;;
72087;SDS011;59961;50.232;8.616;2023-06-22T03:06:18;9.63;;;5.35;;
72087;SDS011;59961;50.232;8.616;2023-06-22T03:08:49;10.70;;;5.75;;
72087;SDS011;59961;50.232;8.616;2023-06-22T03:11:21;10.65;;;6.03;;
72087;SDS011;59961;50.232;8.616;2023-06-22T03:13:46;11.02;;;6.00;;
72087;SDS011;59961;50.232;8.616;2023-06-22T03:16:11;9.17;;;5.57;;
72087;SDS011;59961;50.232;8.616;2023-06-22T03:18:36;10.90;;;5.73;;
72087;SDS011;59961;50.232;8.616;2023-06-22T03:21:01;10.63;;;5.82;;
72087;SDS011;59961;50.232;8.616;2023-06-22T03:23:27;11.13;;;6.10;;
72087;SDS011;59961;50.232;8.616;2023-06-22T03:25:52;13.80;;;6.03;;
72087;SDS011;59961;50.232;8.616;2023-06-22T03:28:20;11.50;;;6.00;;
72087;SDS011;59961;50.232;8.616;2023-06-22T03:30:45;13.18;;;7.90;;
72087;SDS011;59961;50.232;8.616;2023-06-22T03:33:10;9.77;;;6.00;;
72087;SDS011;59961;50.232;8.616;2023-06-22T03:35:35;10.50;;;6.07;;
72087;SDS011;59961;50.232;8.616;2023-06-22T03:38:01;11.83;;;6.33;;
72087;SDS011;59961;50.232;8.616;2023-06-22T03:40:26;9.67;;;6.13;;
72087;SDS011;59961;50.232;8.616;2023-06-22T03:42:51;13.00;;;5.30;;
72087;SDS011;59961;50.232;8.616;2023-06-22T03:45:16;11.13;;;5.70;;
72087;SDS011;59961;50.232;8.616;2023-06-22T03:47:41;8.43;;;5.60;;
72087;SDS011;59961;50.232;8.616;2023-06-22T03:50:06;9.73;;;6.18;;
72087;SDS011;59961;50.232;8.616;2023-06-22T03:52:32;10.32;;;6.13;;
72087;SDS011;59961;50.232;8.616;2023-06-22T03:54:57;10.83;;;6.10;;
72087;SDS011;59961;50.232;8.616;2023-06-22T03:57:22;9.97;;;6.07;;
72087;SDS011;59961;50.232;8.616;2023-06-22T03:59:47;10.43;;;6.10;;
72087;SDS011;59961;50.232;8.616;2023-06-22T04:02:12;11.13;;;5.88;;
72087;SDS011;59961;50.232;8.616;2023-06-22T04:04:38;10.80;;;6.20;;
72087;SDS011;59961;50.232;8.616;2023-06-22T04:07:04;10.53;;;6.10;;
72087;SDS011;59961;50.232;8.616;2023-06-22T04:09:29;11.17;;;6.47;;
72087;SDS011;59961;50.232;8.616;2023-06-22T04:11:54;10.63;;;6.03;;
72087;SDS011;59961;50.232;8.616;2023-06-22T04:14:19;10.10;;;6.83;;
72087;SDS011;59961;50.232;8.616;2023-06-22T04:16:44;10.20;;;6.95;;
72087;SDS011;59961;50.232;8.616;2023-06-22T04:19:09;11.50;;;6.53;;
72087;SDS011;59961;50.232;8.616;2023-06-22T04:21:42;11.90;;;6.78;;
72087;SDS011;59961;50.232;8.616;2023-06-22T04:24:07;13.30;;;6.38;;
72087;SDS011;59961;50.232;8.616;2023-06-22T04:26:32;11.02;;;6.43;;
72087;SDS011;59961;50.232;8.616;2023-06-22T04:29:02;10.90;;;6.67;;
72087;SDS011;59961;50.232;8.616;2023-06-22T04:31:30;12.20;;;6.18;;
72087;SDS011;59961;50.232;8.616;2023-06-22T04:33:57;11.90;;;7.15;;
72087;SDS011;59961;50.232;8.616;2023-06-22T04:36:22;12.00;;;6.70;;
72087;SDS011;59961;50.232;8.616;2023-06-22T04:38:48;10.60;;;6.50;;
72087;SDS011;59961;50.232;8.616;2023-06-22T04:41:14;9.63;;;6.25;;
72087;SDS011;59961;50.232;8.616;2023-06-22T04:43:48;11.93;;;6.75;;
72087;SDS011;59961;50.232;8.616;2023-06-22T04:46:18;9.60;;;6.00;;
72087;SDS011;59961;50.232;8.616;2023-06-22T04:48:43;9.65;;;6.63;;
72087;SDS011;59961;50.232;8.616;2023-06-22T04:51:08;10.13;;;6.47;;
72087;SDS011;59961;50.232;8.616;2023-06-22T04:53:35;12.10;;;6.47;;
72087;SDS011;59961;50.232;8.616;2023-06-22T04:56:00;10.02;;;6.38;;
72087;SDS011;59961;50.232;8.616;2023-06-22T04:58:25;10.80;;;6.07;;
72087;SDS011;59961;50.232;8.616;2023-06-22T05:00:53;10.48;;;6.75;;
72087;SDS011;59961;50.232;8.616;2023-06-22T05:03:21;10.35;;;5.93;;
72087;SDS011;59961;50.232;8.616;2023-06-22T05:05:47;12.03;;;6.23;;
72087;SDS011;59961;50.232;8.616;2023-06-22T05:08:12;11.23;;;6.10;;
72087;SDS011;59961;50.232;8.616;2023-06-22T05:10:38;10.27;;;5.77;;
72087;SDS011;59961;50.232;8.616;2023-06-22T05:13:03;8.95;;;5.85;;
72087;SDS011;59961;50.232;8.616;2023-06-22T05:15:28;8.25;;;5.50;;
72087;SDS011;59961;50.232;8.616;2023-06-22T05:17:55;8.27;;;5.35;;
72087;SDS011;59961;50.232;8.616;2023-06-22T05:20:20;10.63;;;6.07;;
72087;SDS011;59961;50.232;8.616;2023-06-22T05:22:46;11.85;;;6.30;;
72087;SDS011;59961;50.232;8.616;2023-06-22T05:25:12;9.70;;;6.00;;
72087;SDS011;59961;50.232;8.616;2023-06-22T05:27:37;10.53;;;6.63;;
72087;SDS011;59961;50.232;8.616;2023-06-22T05:30:04;9.55;;;6.15;;
72087;SDS011;59961;50.232;8.616;2023-06-22T05:32:30;10.55;;;5.75;;
72087;SDS011;59961;50.232;8.616;2023-06-22T05:34:55;9.95;;;6.22;;
72087;SDS011;59961;50.232;8.616;2023-06-22T05:37:21;9.67;;;6.10;;
72087;SDS011;59961;50.232;8.616;2023-06-22T05:39:46;8.13;;;5.32;;
72087;SDS011;59961;50.232;8.616;2023-06-22T05:42:12;9.93;;;5.82;;
72087;SDS011;59961;50.232;8.616;2023-06-22T05:44:37;11.00;;;5.60;;
72087;SDS011;59961;50.232;8.616;2023-06-22T05:47:04;11.32;;;6.28;;
72087;SDS011;59961;50.232;8.616;2023-06-22T05:49:29;9.80;;;5.53;;
72087;SDS011;59961;50.232;8.616;2023-06-22T05:51:57;10.88;;;5.45;;
72087;SDS011;59961;50.232;8.616;2023-06-22T05:54:22;9.77;;;6.13;;
72087;SDS011;59961;50.232;8.616;2023-06-22T05:56:48;9.33;;;5.47;;
72087;SDS011;59961;50.232;8.616;2023-06-22T05:59:13;9.20;;;5.47;;
72087;SDS011;59961;50.232;8.616;2023-06-22T06:01:38;10.33;;;6.10;;
72087;SDS011;59961;50.232;8.616;2023-06-22T06:04:04;11.20;;;6.20;;
72087;SDS011;59961;50.232;8.616;2023-06-22T06:06:30;11.27;;;5.53;;
72087;SDS011;59961;50.232;8.616;2023-06-22T06:08:55;11.05;;;5.93;;
72087;SDS011;59961;50.232;8.616;2023-06-22T06:11:21;10.03;;;5.80;;
72087;SDS011;59961;50.232;8.616;2023-06-22T06:13:46;9.87;;;5.57;;
72087;SDS011;59961;50.232;8.616;2023-06-22T06:16:11;12.85;;;5.80;;
72087;SDS011;59961;50.232;8.616;2023-06-22T06:18:36;10.02;;;5.82;;
72087;SDS011;59961;50.232;8.616;2023-06-22T06:21:02;12.40;;;6.10;;
72087;SDS011;59961;50.232;8.616;2023-06-22T06:23:27;10.67;;;6.43;;
72087;SDS011;59961;50.232;8.616;2023-06-22T06:25:52;9.57;;;5.50;;
72087;SDS011;59961;50.232;8.616;2023-06-22T06:28:18;9.02;;;5.78;;
72087;SDS011;59961;50.232;8.616;2023-06-22T06:30:43;10.07;;;6.13;;
72087;SDS011;59961;50.232;8.616;2023-06-22T06:33:08;10.80;;;6.43;;
72087;SDS011;59961;50.232;8.616;2023-06-22T06:35:34;10.40;;;6.50;;
72087;SDS011;59961;50.232;8.616;2023-06-22T06:37:59;9.50;;;6.20;;
72087;SDS011;59961;50.232;8.616;2023-06-22T06:40:24;10.05;;;6.05;;
72087;SDS011;59961;50.232;8.616;2023-06-22T06:42:49;10.82;;;6.07;;
72087;SDS011;59961;50.232;8.616;2023-06-22T06:45:18;11.20;;;6.50;;
72087;SDS011;59961;50.232;8.616;2023-06-22T06:47:44;10.50;;;5.53;;
72087;SDS011;59961;50.232;8.616;2023-06-22T06:50:10;11.57;;;5.97;;
72087;SDS011;59961;50.232;8.616;2023-06-22T06:52:35;12.05;;;6.20;;
72087;SDS011;59961;50.232;8.616;2023-06-22T06:55:00;10.03;;;5.90;;
72087;SDS011;59961;50.232;8.616;2023-06-22T06:57:25;10.43;;;5.80;;
72087;SDS011;59961;50.232;8.616;2023-06-22T06:59:53;11.13;;;6.17;;
72087;SDS011;59961;50.232;8.616;2023-06-22T07:02:18;11.63;;;6.30;;
72087;SDS011;59961;50.232;8.616;2023-06-22T07:04:44;10.60;;;6.53;;
72087;SDS011;59961;50.232;8.616;2023-06-22T07:07:09;9.50;;;5.83;;
72087;SDS011;59961;50.232;8.616;2023-06-22T07:09:34;9.43;;;5.78;;
72087;SDS011;59961;50.232;8.616;2023-06-22T07:11:59;11.70;;;6.25;;
72087;SDS011;59961;50.232;8.616;2023-06-22T07:14:24;10.17;;;6.07;;
72087;SDS011;59961;50.232;8.616;2023-06-22T07:16:50;10.35;;;6.05;;
72087;SDS011;59961;50.232;8.616;2023-06-22T07:19:15;11.05;;;5.68;;
72087;SDS011;59961;50.232;8.616;2023-06-22T07:21:40;9.73;;;5.68;;
72087;SDS011;59961;50.232;8.616;2023-06-22T07:24:06;10.30;;;6.07;;
72087;SDS011;59961;50.232;8.616;2023-06-22T07:26:31;9.53;;;5.70;;
72087;SDS011;59961;50.232;8.616;2023-06-22T07:28:57;10.63;;;6.22;;
72087;SDS011;59961;50.232;8.616;2023-06-22T07:31:24;14.15;;;6.80;;
72087;SDS011;59961;50.232;8.616;2023-06-22T07:33:49;21.05;;;7.32;;
72087;SDS011;59961;50.232;8.616;2023-06-22T07:36:14;13.65;;;6.45;;
72087;SDS011;59961;50.232;8.616;2023-06-22T07:38:39;9.50;;;6.03;;
72087;SDS011;59961;50.232;8.616;2023-06-22T07:41:04;12.23;;;6.57;;
72087;SDS011;59961;50.232;8.616;2023-06-22T07:43:30;11.52;;;6.35;;
72087;SDS011;59961;50.232;8.616;2023-06-22T07:45:58;11.77;;;6.30;;
72087;SDS011;59961;50.232;8.616;2023-06-22T07:48:23;12.03;;;6.10;;
72087;SDS011;59961;50.232;8.616;2023-06-22T07:50:48;10.13;;;5.97;;
72087;SDS011;59961;50.232;8.616;2023-06-22T07:53:13;9.83;;;6.07;;
72087;SDS011;59961;50.232;8.616;2023-06-22T07:55:39;10.70;;;6.40;;
72087;SDS011;59961;50.232;8.616;2023-06-22T07:58:04;10.00;;;6.77;;
72087;SDS011;59961;50.232;8.616;2023-06-22T08:00:29;10.48;;;7.13;;
72087;SDS011;59961;50.232;8.616;2023-06-22T08:02:54;14.53;;;8.13;;
72087;SDS011;59961;50.232;8.616;2023-06-22T08:05:19;16.10;;;8.33;;
72087;SDS011;59961;50.232;8.616;2023-06-22T08:07:44;15.60;;;8.10;;
72087;SDS011;59961;50.232;8.616;2023-06-22T08:10:10;11.27;;;6.00;;
72087;SDS011;59961;50.232;8.616;2023-06-22T08:12:35;10.93;;;6.88;;
72087;SDS011;59961;50.232;8.616;2023-06-22T08:15:01;13.18;;;6.57;;
72087;SDS011;59961;50.232;8.616;2023-06-22T08:17:26;11.20;;;6.40;;
72087;SDS011;59961;50.232;8.616;2023-06-22T08:19:51;11.20;;;6.17;;
72087;SDS011;59961;50.232;8.616;2023-06-22T08:22:16;8.88;;;5.43;;
72087;SDS011;59961;50.232;8.616;2023-06-22T08:24:41;11.57;;;6.40;;
72087;SDS011;59961;50.232;8.616;2023-06-22T08:27:07;12.43;;;6.35;;
72087;SDS011;59961;50.232;8.616;2023-06-22T08:29:34;9.95;;;6.22;;
72087;SDS011;59961;50.232;8.616;2023-06-22T08:31:59;10.05;;;5.72;;
72087;SDS011;59961;50.232;8.616;2023-06-22T08:34:24;11.27;;;6.57;;
72087;SDS011;59961;50.232;8.616;2023-06-22T08:36:50;9.80;;;6.73;;
72087;SDS011;59961;50.232;8.616;2023-06-22T08:39:17;9.55;;;5.90;;
72087;SDS011;59961;50.232;8.616;2023-06-22T08:41:42;12.20;;;6.63;;
72087;SDS011;59961;50.232;8.616;2023-06-22T08:44:07;9.82;;;6.25;;
72087;SDS011;59961;50.232;8.616;2023-06-22T08:46:33;11.07;;;6.60;;
72087;SDS011;59961;50.232;8.616;2023-06-22T08:48:58;10.87;;;6.10;;
72087;SDS011;59961;50.232;8.616;2023-06-22T08:51:23;11.23;;;6.77;;
72087;SDS011;59961;50.232;8.616;2023-06-22T08:53:48;9.93;;;6.63;;
72087;SDS011;59961;50.232;8.616;2023-06-22T08:56:14;13.50;;;7.17;;
72087;SDS011;59961;50.232;8.616;2023-06-22T08:58:39;11.57;;;6.90;;
72087;SDS011;59961;50.232;8.616;2023-06-22T09:01:04;10.15;;;6.40;;
72087;SDS011;59961;50.232;8.616;2023-06-22T09:03:29;14.07;;;6.90;;
72087;SDS011;59961;50.232;8.616;2023-06-22T09:05:54;11.57;;;6.35;;
72087;SDS011;59961;50.232;8.616;2023-06-22T09:08:20;11.00;;;6.30;;
72087;SDS011;59961;50.232;8.616;2023-06-22T09:10:45;9.90;;;6.55;;
72087;SDS011;59961;50.232;8.616;2023-06-22T09:13:10;8.20;;;5.80;;
72087;SDS011;59961;50.232;8.616;2023-06-22T09:15:36;11.02;;;6.47;;
72087;SDS011;59961;50.232;8.616;2023-06-22T09:18:01;11.07;;;6.35;;
72087;SDS011;59961;50.232;8.616;2023-06-22T09:20:26;11.47;;;6.60;;
72087;SDS011;59961;50.232;8.616;2023-06-22T09:22:51;13.13;;;6.83;;
72087;SDS011;59961;50.232;8.616;2023-06-22T09:25:16;10.37;;;6.33;;
72087;SDS011;59961;50.232;8.616;2023-06-22T09:27:42;10.83;;;6.50;;
72087;SDS011;59961;50.232;8.616;2023-06-22T09:30:07;9.83;;;6.80;;
72087;SDS011;59961;50.232;8.616;2023-06-22T09:32:32;10.23;;;6.30;;
72087;SDS011;59961;50.232;8.616;2023-06-22T09:34:57;9.67;;;6.47;;
72087;SDS011;59961;50.232;8.616;2023-06-22T09:37:23;9.30;;;6.00;;
72087;SDS011;59961;50.232;8.616;2023-06-22T09:39:48;10.35;;;7.03;;
72087;SDS011;59961;50.232;8.616;2023-06-22T09:42:13;10.47;;;6.43;;
72087;SDS011;59961;50.232;8.616;2023-06-22T09:44:38;11.83;;;6.60;;
72087;SDS011;59961;50.232;8.616;2023-06-22T09:47:03;12.53;;;7.50;;
72087;SDS011;59961;50.232;8.616;2023-06-22T09:49:29;10.70;;;6.60;;
72087;SDS011;59961;50.232;8.616;2023-06-22T09:51:54;9.32;;;6.40;;
72087;SDS011;59961;50.232;8.616;2023-06-22T09:54:19;13.30;;;6.73;;
72087;SDS011;59961;50.232;8.616;2023-06-22T09:56:44;10.70;;;6.83;;
72087;SDS011;59961;50.232;8.616;2023-06-22T09:59:09;11.47;;;6.80;;
72087;SDS011;59961;50.232;8.616;2023-06-22T10:01:35;10.90;;;6.63;;
72087;SDS011;59961;50.232;8.616;2023-06-22T10:04:00;11.50;;;6.37;;
72087;SDS011;59961;50.232;8.616;2023-06-22T10:06:25;9.38;;;6.72;;
72087;SDS011;59961;50.232;8.616;2023-06-22T10:08:50;12.63;;;6.70;;
72087;SDS011;59961;50.232;8.616;2023-06-22T10:11:15;9.53;;;7.03;;
72087;SDS011;59961;50.232;8.616;2023-06-22T10:13:41;10.40;;;6.55;;
72087;SDS011;59961;50.232;8.616;2023-06-22T10:16:06;9.40;;;6.45;;
72087;SDS011;59961;50.232;8.616;2023-06-22T10:18:32;12.13;;;7.57;;
72087;SDS011;59961;50.232;8.616;2023-06-22T10:20:57;10.23;;;6.80;;
72087;SDS011;59961;50.232;8.616;2023-06-22T10:23:22;14.50;;;7.00;;
72087;SDS011;59961;50.232;8.616;2023-06-22T10:25:47;11.20;;;6.60;;
72087;SDS011;59961;50.232;8.616;2023-06-22T10:28:13;10.47;;;5.87;;
72087;SDS011;59961;50.232;8.616;2023-06-22T10:30:39;9.87;;;6.57;;
72087;SDS011;59961;50.232;8.616;2023-06-22T10:33:06;10.32;;;6.47;;
72087;SDS011;59961;50.232;8.616;2023-06-22T10:35:31;10.67;;;6.07;;
72087;SDS011;59961;50.232;8.616;2023-06-22T10:37:56;9.87;;;6.10;;
72087;SDS011;59961;50.232;8.616;2023-06-22T10:40:21;10.33;;;6.70;;
72087;SDS011;59961;50.232;8.616;2023-06-22T10:42:48;11.15;;;6.65;;
72087;SDS011;59961;50.232;8.616;2023-06-22T10:45:15;9.48;;;6.40;;
72087;SDS011;59961;50.232;8.616;2023-06-22T10:47:40;12.27;;;6.23;;
72087;SDS011;59961;50.232;8.616;2023-06-22T10:50:07;9.05;;;6.00;;
72087;SDS011;59961;50.232;8.616;2023-06-22T10:52:32;9.83;;;6.57;;
72087;SDS011;59961;50.232;8.616;2023-06-22T10:54:57;9.17;;;6.30;;
72087;SDS011;59961;50.232;8.616;2023-06-22T10:57:23;9.18;;;6.47;;
72087;SDS011;59961;50.232;8.616;2023-06-22T10:59:48;11.47;;;6.27;;
72087;SDS011;59961;50.232;8.616;2023-06-22T11:02:13;10.33;;;5.50;;
72087;SDS011;59961;50.232;8.616;2023-06-22T11:04:38;9.70;;;5.30;;
72087;SDS011;59961;50.232;8.616;2023-06-22T11:07:03;9.90;;;5.38;;
72087;SDS011;59961;50.232;8.616;2023-06-22T11:09:28;8.90;;;5.10;;
72087;SDS011;59961;50.232;8.616;2023-06-22T11:11:55;9.23;;;5.82;;
72087;SDS011;59961;50.232;8.616;2023-06-22T11:14:20;8.77;;;5.40;;
72087;SDS011;59961;50.232;8.616;2023-06-22T11:16:45;9.03;;;5.30;;
72087;SDS011;59961;50.232;8.616;2023-06-22T11:19:11;8.77;;;5.13;;
72087;SDS011;59961;50.232;8.616;2023-06-22T11:21:37;9.07;;;5.38;;
72087;SDS011;59961;50.232;8.616;2023-06-22T11:31:47;10.10;;;4.97;;
72087;SDS011;59961;50.232;8.616;2023-06-22T11:36:47;10.57;;;5.60;;
72087;SDS011;59961;50.232;8.616;2023-06-22T11:39:13;11.63;;;5.43;;
72087;SDS011;59961;50.232;8.616;2023-06-22T11:41:39;8.13;;;4.72;;
72087;SDS011;59961;50.232;8.616;2023-06-22T11:49:15;23.67;;;7.10;;
72087;SDS011;59961;50.232;8.616;2023-06-22T11:59:25;12.40;;;5.47;;
72087;SDS011;59961;50.232;8.616;2023-06-22T12:04:25;26.33;;;8.05;;
72087;SDS011;59961;50.232;8.616;2023-06-22T12:09:27;8.73;;;5.35;;
72087;SDS011;59961;50.232;8.616;2023-06-22T12:11:57;10.77;;;5.55;;
72087;SDS011;59961;50.232;8.616;2023-06-22T12:14:22;14.75;;;6.38;;
72087;SDS011;59961;50.232;8.616;2023-06-22T12:16:47;11.80;;;6.83;;
72087;SDS011;59961;50.232;8.616;2023-06-22T12:19:13;13.17;;;6.00;;
72087;SDS011;59961;50.232;8.616;2023-06-22T12:21:39;11.47;;;5.80;;
72087;SDS011;59961;50.232;8.616;2023-06-22T12:24:05;21.25;;;6.88;;
72087;SDS011;59961;50.232;8.616;2023-06-22T12:26:30;15.77;;;6.80;;
72087;SDS011;59961;50.232;8.616;2023-06-22T12:31:32;9.88;;;6.07;;
72087;SDS011;59961;50.232;8.616;2023-06-22T12:33:58;9.60;;;5.45;;
72087;SDS011;59961;50.232;8.616;2023-06-22T12:36:23;12.23;;;6.22;;
72087;SDS011;59961;50.232;8.616;2023-06-22T12:38:49;12.87;;;6.00;;
72087;SDS011;59961;50.232;8.616;2023-06-22T12:59:19;23.77;;;7.95;;
72087;SDS011;59961;50.232;8.616;2023-06-22T13:01:45;11.50;;;6.37;;
72087;SDS011;59961;50.232;8.616;2023-06-22T13:04:10;12.45;;;6.53;;
72087;SDS011;59961;50.232;8.616;2023-06-22T13:11:48;13.40;;;6.65;;
72087;SDS011;59961;50.232;8.616;2023-06-22T13:14:13;15.13;;;5.47;;
72087;SDS011;59961;50.232;8.616;2023-06-22T13:16:38;12.20;;;5.77;;
72087;SDS011;59961;50.232;8.616;2023-06-22T13:19:03;12.40;;;6.53;;
72087;SDS011;59961;50.232;8.616;2023-06-22T13:21:30;13.88;;;6.50;;
72087;SDS011;59961;50.232;8.616;2023-06-22T13:23:55;13.23;;;6.07;;
72087;SDS011;59961;50.232;8.616;2023-06-22T13:26:21;13.07;;;6.07;;
72087;SDS011;59961;50.232;8.616;2023-06-22T13:31:21;16.27;;;6.38;;
72087;SDS011;59961;50.232;8.616;2023-06-22T13:33:46;12.57;;;5.83;;
72087;SDS011;59961;50.232;8.616;2023-06-22T13:36:13;9.57;;;5.18;;
72087;SDS011;59961;50.232;8.616;2023-06-22T13:38:38;12.57;;;6.20;;
72087;SDS011;59961;50.232;8.616;2023-06-22T13:41:03;13.65;;;6.63;;
72087;SDS011;59961;50.232;8.616;2023-06-22T13:43:28;14.83;;;6.43;;
72087;SDS011;59961;50.232;8.616;2023-06-22T13:45:54;12.07;;;6.00;;
72087;SDS011;59961;50.232;8.616;2023-06-22T13:48:19;10.38;;;5.65;;
72087;SDS011;59961;50.232;8.616;2023-06-22T13:50:44;9.97;;;5.80;;
72087;SDS011;59961;50.232;8.616;2023-06-22T13:53:09;10.90;;;5.30;;
72087;SDS011;59961;50.232;8.616;2023-06-22T13:55:34;12.55;;;5.93;;
72087;SDS011;59961;50.232;8.616;2023-06-22T13:57:59;10.00;;;5.50;;
72087;SDS011;59961;50.232;8.616;2023-06-22T14:00:25;11.13;;;5.80;;
72087;SDS011;59961;50.232;8.616;2023-06-22T14:02:50;12.43;;;6.07;;
72087;SDS011;59961;50.232;8.616;2023-06-22T14:05:16;9.65;;;5.15;;
72087;SDS011;59961;50.232;8.616;2023-06-22T14:07:41;12.20;;;6.10;;
72087;SDS011;59961;50.232;8.616;2023-06-22T14:10:06;11.20;;;6.00;;
72087;SDS011;59961;50.232;8.616;2023-06-22T14:12:32;11.67;;;5.50;;
72087;SDS011;59961;50.232;8.616;2023-06-22T14:14:57;10.93;;;6.00;;
72087;SDS011;59961;50.232;8.616;2023-06-22T14:17:22;11.70;;;5.93;;
72087;SDS011;59961;50.232;8.616;2023-06-22T14:19:50;11.23;;;6.20;;
72087;SDS011;59961;50.232;8.616;2023-06-22T14:22:17;12.63;;;5.50;;
72087;SDS011;59961;50.232;8.616;2023-06-22T14:24:42;12.43;;;5.73;;
72087;SDS011;59961;50.232;8.616;2023-06-22T14:27:07;11.20;;;5.55;;
72087;SDS011;59961;50.232;8.616;2023-06-22T14:29:34;11.97;;;6.27;;
72087;SDS011;59961;50.232;8.616;2023-06-22T14:32:01;10.20;;;5.63;;
72087;SDS011;59961;50.232;8.616;2023-06-22T14:34:27;11.25;;;6.03;;
72087;SDS011;59961;50.232;8.616;2023-06-22T14:36:52;11.10;;;6.30;;
72087;SDS011;59961;50.232;8.616;2023-06-22T14:39:17;13.17;;;6.87;;
72087;SDS011;59961;50.232;8.616;2023-06-22T14:41:42;9.60;;;5.50;;
72087;SDS011;59961;50.232;8.616;2023-06-22T14:44:07;9.90;;;6.03;;
72087;SDS011;59961;50.232;8.616;2023-06-22T14:46:33;10.50;;;5.40;;
72087;SDS011;59961;50.232;8.616;2023-06-22T14:48:58;10.82;;;6.22;;
72087;SDS011;59961;50.232;8.616;2023-06-22T14:51:23;11.00;;;6.43;;
72087;SDS011;59961;50.232;8.616;2023-06-22T14:53:48;11.80;;;6.37;;
72087;SDS011;59961;50.232;8.616;2023-06-22T14:56:13;14.47;;;5.60;;
72087;SDS011;59961;50.232;8.616;2023-06-22T14:58:40;12.45;;;6.03;;
72087;SDS011;59961;50.232;8.616;2023-06-22T15:01:05;14.97;;;5.90;;
72087;SDS011;59961;50.232;8.616;2023-06-22T15:03:33;9.25;;;5.35;;
72087;SDS011;59961;50.232;8.616;2023-06-22T15:06:00;10.43;;;5.00;;
72087;SDS011;59961;50.232;8.616;2023-06-22T15:08:26;14.03;;;4.83;;
72087;SDS011;59961;50.232;8.616;2023-06-22T15:10:51;19.23;;;4.87;;
72087;SDS011;59961;50.232;8.616;2023-06-22T15:13:16;13.20;;;5.05;;
72087;SDS011;59961;50.232;8.616;2023-06-22T15:15:42;12.13;;;4.80;;
72087;SDS011;59961;50.232;8.616;2023-06-22T15:18:07;11.63;;;4.30;;
72087;SDS011;59961;50.232;8.616;2023-06-22T15:20:33;10.52;;;4.63;;
72087;SDS011;59961;50.232;8.616;2023-06-22T15:22:58;12.90;;;4.35;;
72087;SDS011;59961;50.232;8.616;2023-06-22T15:25:23;16.40;;;4.13;;
72087;SDS011;59961;50.232;8.616;2023-06-22T15:27:48;9.43;;;4.43;;